sensor_id;sensor_type;location;lat;lon;timestamp;pressure;altitude;pressure_sealevel;temperature;humidity
12793;BME280;6460;42.684;23.260;2023-07-02T19:09:03;94127.69;;;22.04;86.93
12793;BME280;6460;42.684;23.260;2023-07-02T19:11:32;94133.97;;;21.63;88.74
12793;BME280;6460;42.684;23.260;2023-07-02T19:14:00;94132.78;;;21.64;90.11
12793;BME280;6460;42.684;23.260;2023-07-02T19:16:27;94131.69;;;21.87;89.24
12793;BME280;6460;42.684;23.260;2023-07-02T19:18:55;94135.25;;;21.34;91.93
12793;BME280;6460;42.684;23.260;2023-07-02T19:21:22;94142.50;;;21.53;91.55
12793;BME280;6460;42.684;23.260;2023-07-02T19:23:50;94146.75;;;21.54;92.10
12793;BME280;6460;42.684;23.260;2023-07-02T19:26:19;94150.03;;;21.07;94.51
12793;BME280;6460;42.684;23.260;2023-07-02T19:28:47;94151.22;;;21.06;96.04
12793;BME280;6460;42.684;23.260;2023-07-02T19:31:15;94149.13;;;21.27;93.99
12793;BME280;6460;42.684;23.260;2023-07-02T19:33:42;94158.13;;;21.40;93.04
12793;BME280;6460;42.684;23.260;2023-07-02T19:36:09;94164.66;;;21.30;94.32
12793;BME280;6460;42.684;23.260;2023-07-02T19:38:36;94160.72;;;21.31;93.39
12793;BME280;6460;42.684;23.260;2023-07-02T19:41:04;94165.91;;;21.54;92.44
12793;BME280;6460;42.684;23.260;2023-07-02T19:43:32;94162.75;;;21.55;91.79
12793;BME280;6460;42.684;23.260;2023-07-02T19:46:00;94167.00;;;21.44;93.16
12793;BME280;6460;42.684;23.260;2023-07-02T19:48:28;94166.91;;;21.60;91.05
12793;BME280;6460;42.684;23.260;2023-07-02T19:50:59;94173.34;;;21.53;91.53
12793;BME280;6460;42.684;23.260;2023-07-02T19:53:27;94178.47;;;21.10;92.94
12793;BME280;6460;42.684;23.260;2023-07-02T19:55:54;94177.66;;;21.26;92.36
12793;BME280;6460;42.684;23.260;2023-07-02T19:58:22;94174.25;;;21.22;92.66
12793;BME280;6460;42.684;23.260;2023-07-02T20:00:51;94170.66;;;21.25;91.91
12793;BME280;6460;42.684;23.260;2023-07-02T20:03:18;94176.09;;;21.12;92.39
12793;BME280;6460;42.684;23.260;2023-07-02T20:05:45;94172.91;;;21.14;91.83
12793;BME280;6460;42.684;23.260;2023-07-02T20:08:12;94168.00;;;20.92;93.32
12793;BME280;6460;42.684;23.260;2023-07-02T20:10:40;94169.91;;;20.79;94.56
12793;BME280;6460;42.684;23.260;2023-07-02T20:13:07;94169.53;;;20.93;94.29
12793;BME280;6460;42.684;23.260;2023-07-02T20:15:34;94169.91;;;21.08;93.25
12793;BME280;6460;42.684;23.260;2023-07-02T20:18:03;94173.44;;;21.08;93.04
12793;BME280;6460;42.684;23.260;2023-07-02T20:20:31;94183.66;;;20.76;94.67
12793;BME280;6460;42.684;23.260;2023-07-02T20:22:58;94176.31;;;21.18;92.16
12793;BME280;6460;42.684;23.260;2023-07-02T20:25:25;94181.25;;;21.23;91.70
12793;BME280;6460;42.684;23.260;2023-07-02T20:27:53;94182.94;;;20.88;93.91
12793;BME280;6460;42.684;23.260;2023-07-02T20:30:21;94185.91;;;20.93;93.50
12793;BME280;6460;42.684;23.260;2023-07-02T20:32:48;94182.03;;;21.07;93.32
12793;BME280;6460;42.684;23.260;2023-07-02T20:35:17;94185.03;;;20.68;94.66
12793;BME280;6460;42.684;23.260;2023-07-02T20:37:45;94187.59;;;20.42;97.73
12793;BME280;6460;42.684;23.260;2023-07-02T20:40:16;94185.13;;;20.64;96.68
12793;BME280;6460;42.684;23.260;2023-07-02T20:42:44;94188.22;;;20.50;98.00
12793;BME280;6460;42.684;23.260;2023-07-02T20:45:12;94196.22;;;20.41;99.40
12793;BME280;6460;42.684;23.260;2023-07-02T20:47:40;94194.19;;;20.45;99.04
12793;BME280;6460;42.684;23.260;2023-07-02T20:50:08;94188.38;;;20.27;100.00
12793;BME280;6460;42.684;23.260;2023-07-02T20:52:37;94187.03;;;20.51;99.21
12793;BME280;6460;42.684;23.260;2023-07-02T20:55:05;94187.78;;;20.35;100.00
12793;BME280;6460;42.684;23.260;2023-07-02T20:57:32;94194.97;;;20.29;100.00
12793;BME280;6460;42.684;23.260;2023-07-02T20:59:59;94193.84;;;20.43;100.00
12793;BME280;6460;42.684;23.260;2023-07-02T21:02:26;94205.13;;;20.45;100.00
12793;BME280;6460;42.684;23.260;2023-07-02T21:04:54;94210.69;;;20.22;100.00
12793;BME280;6460;42.684;23.260;2023-07-02T21:07:22;94203.41;;;20.35;100.00
12793;BME280;6460;42.684;23.260;2023-07-02T21:09:50;94215.00;;;20.39;100.00
12793;BME280;6460;42.684;23.260;2023-07-02T21:12:18;94207.53;;;20.23;100.00
12793;BME280;6460;42.684;23.260;2023-07-02T21:14:49;94207.28;;;20.18;100.00
12793;BME280;6460;42.684;23.260;2023-07-02T21:17:16;94210.75;;;20.38;100.00
12793;BME280;6460;42.684;23.260;2023-07-02T21:19:43;94215.34;;;20.41;100.00
12793;BME280;6460;42.684;23.260;2023-07-02T21:22:10;94215.09;;;20.35;100.00
12793;BME280;6460;42.684;23.260;2023-07-02T21:24:37;94221.56;;;20.57;100.00
12793;BME280;6460;42.684;23.260;2023-07-02T21:27:07;94222.91;;;20.33;100.00
12793;BME280;6460;42.684;23.260;2023-07-02T21:29:34;94222.00;;;20.56;100.00
12793;BME280;6460;42.684;23.260;2023-07-02T21:32:01;94210.34;;;20.84;98.61
12793;BME280;6460;42.684;23.260;2023-07-02T21:34:29;94227.09;;;20.70;99.27
12793;BME280;6460;42.684;23.260;2023-07-02T21:36:56;94219.56;;;20.90;97.54
12793;BME280;6460;42.684;23.260;2023-07-02T21:39:23;94230.84;;;20.76;98.08
12793;BME280;6460;42.684;23.260;2023-07-02T21:41:50;94225.38;;;20.92;98.17
12793;BME280;6460;42.684;23.260;2023-07-02T21:44:19;94219.97;;;21.05;95.94
12793;BME280;6460;42.684;23.260;2023-07-02T21:46:46;94217.00;;;20.99;96.16
12793;BME280;6460;42.684;23.260;2023-07-02T21:49:13;94226.28;;;21.02;95.81
12793;BME280;6460;42.684;23.260;2023-07-02T21:51:40;94227.56;;;20.97;95.86
12793;BME280;6460;42.684;23.260;2023-07-02T21:54:07;94235.47;;;20.79;95.69
12793;BME280;6460;42.684;23.260;2023-07-02T21:56:34;94227.13;;;20.54;98.11
12793;BME280;6460;42.684;23.260;2023-07-02T21:59:01;94230.19;;;20.40;99.23
12793;BME280;6460;42.684;23.260;2023-07-02T22:01:29;94231.38;;;20.55;98.34
12793;BME280;6460;42.684;23.260;2023-07-02T22:03:56;94230.34;;;20.65;97.15
12793;BME280;6460;42.684;23.260;2023-07-02T22:06:25;94220.81;;;20.41;99.26
12793;BME280;6460;42.684;23.260;2023-07-02T22:08:52;94231.03;;;20.37;99.88
12793;BME280;6460;42.684;23.260;2023-07-02T22:11:19;94221.66;;;20.38;99.06
12793;BME280;6460;42.684;23.260;2023-07-02T22:13:46;94230.03;;;20.11;100.00
12793;BME280;6460;42.684;23.260;2023-07-02T22:16:13;94228.94;;;20.25;100.00
12793;BME280;6460;42.684;23.260;2023-07-02T22:18:41;94223.50;;;20.25;100.00
12793;BME280;6460;42.684;23.260;2023-07-02T22:21:08;94228.13;;;20.28;99.79
12793;BME280;6460;42.684;23.260;2023-07-02T22:23:36;94230.28;;;20.17;100.00
12793;BME280;6460;42.684;23.260;2023-07-02T22:26:03;94229.66;;;20.29;99.19
12793;BME280;6460;42.684;23.260;2023-07-02T22:28:30;94233.00;;;20.17;100.00
12793;BME280;6460;42.684;23.260;2023-07-02T22:30:57;94226.38;;;20.18;99.41
12793;BME280;6460;42.684;23.260;2023-07-02T22:33:24;94227.59;;;20.33;98.58
12793;BME280;6460;42.684;23.260;2023-07-02T22:35:52;94226.03;;;20.16;99.44
12793;BME280;6460;42.684;23.260;2023-07-02T22:38:19;94227.06;;;20.22;99.40
12793;BME280;6460;42.684;23.260;2023-07-02T22:40:47;94214.13;;;20.26;99.33
12793;BME280;6460;42.684;23.260;2023-07-02T22:43:14;94233.53;;;20.12;99.57
12793;BME280;6460;42.684;23.260;2023-07-02T22:45:41;94224.41;;;20.18;99.76
12793;BME280;6460;42.684;23.260;2023-07-02T22:48:08;94224.69;;;20.24;99.40
12793;BME280;6460;42.684;23.260;2023-07-02T22:50:35;94233.34;;;20.02;100.00
12793;BME280;6460;42.684;23.260;2023-07-02T22:53:04;94233.47;;;20.15;100.00
12793;BME280;6460;42.684;23.260;2023-07-02T22:55:30;94229.81;;;20.22;100.00
12793;BME280;6460;42.684;23.260;2023-07-02T22:57:57;94228.41;;;20.14;100.00
12793;BME280;6460;42.684;23.260;2023-07-02T23:00:26;94233.72;;;20.21;100.00
12793;BME280;6460;42.684;23.260;2023-07-02T23:02:53;94229.09;;;20.18;100.00
12793;BME280;6460;42.684;23.260;2023-07-02T23:05:20;94227.81;;;20.06;100.00
12793;BME280;6460;42.684;23.260;2023-07-02T23:07:47;94224.09;;;19.80;100.00
12793;BME280;6460;42.684;23.260;2023-07-02T23:10:16;94218.88;;;19.70;100.00
12793;BME280;6460;42.684;23.260;2023-07-02T23:12:45;94224.97;;;19.58;100.00
12793;BME280;6460;42.684;23.260;2023-07-02T23:15:14;94226.22;;;19.53;100.00
12793;BME280;6460;42.684;23.260;2023-07-02T23:17:42;94235.53;;;19.56;100.00
12793;BME280;6460;42.684;23.260;2023-07-02T23:20:10;94224.94;;;19.77;100.00
12793;BME280;6460;42.684;23.260;2023-07-02T23:22:40;94227.75;;;19.74;100.00
12793;BME280;6460;42.684;23.260;2023-07-02T23:25:11;94235.72;;;19.65;100.00
12793;BME280;6460;42.684;23.260;2023-07-02T23:27:41;94233.56;;;19.56;100.00
12793;BME280;6460;42.684;23.260;2023-07-02T23:30:10;94235.72;;;19.45;100.00
12793;BME280;6460;42.684;23.260;2023-07-02T23:32:40;94222.31;;;19.54;100.00
12793;BME280;6460;42.684;23.260;2023-07-02T23:35:08;94219.50;;;19.77;100.00
12793;BME280;6460;42.684;23.260;2023-07-02T23:37:37;94227.41;;;19.72;100.00
12793;BME280;6460;42.684;23.260;2023-07-02T23:40:08;94225.16;;;19.47;100.00
12793;BME280;6460;42.684;23.260;2023-07-02T23:42:40;94222.28;;;19.15;100.00
12793;BME280;6460;42.684;23.260;2023-07-02T23:45:08;94218.78;;;19.34;100.00
12793;BME280;6460;42.684;23.260;2023-07-02T23:47:36;94231.84;;;19.23;100.00
12793;BME280;6460;42.684;23.260;2023-07-02T23:50:04;94226.84;;;19.41;100.00
12793;BME280;6460;42.684;23.260;2023-07-02T23:52:33;94224.16;;;19.18;100.00
12793;BME280;6460;42.684;23.260;2023-07-02T23:55:02;94231.47;;;19.44;100.00
12793;BME280;6460;42.684;23.260;2023-07-02T23:57:29;94230.53;;;19.11;100.00
12793;BME280;6460;42.684;23.260;2023-07-02T23:59:58;94237.75;;;19.41;100.00
